createdAt,value
2018-07-28T00:01:42.378Z,7.03
2018-07-28T00:04:10.676Z,6.73
2018-07-28T00:06:38.636Z,6.30
2018-07-28T00:09:08.911Z,6.30
2018-07-28T00:11:37.115Z,7.70
2018-07-28T00:14:05.923Z,7.87
2018-07-28T00:16:33.480Z,9.67
2018-07-28T00:19:01.541Z,8.10
2018-07-28T00:21:29.803Z,9.67
2018-07-28T00:23:57.787Z,8.30
2018-07-28T00:26:25.595Z,8.37
2018-07-28T00:28:53.027Z,8.03
2018-07-28T00:31:22.467Z,8.80
2018-07-28T00:33:50.184Z,8.40
2018-07-28T00:36:17.691Z,7.30
2018-07-28T00:38:45.680Z,7.10
2018-07-28T00:41:13.192Z,6.80
2018-07-28T00:43:41.096Z,7.17
2018-07-28T00:46:08.603Z,5.93
2018-07-28T00:48:36.124Z,5.37
2018-07-28T00:51:04.212Z,6.00
2018-07-28T00:53:32.179Z,6.27
2018-07-28T00:55:59.771Z,5.30
2018-07-28T00:58:27.660Z,5.30
2018-07-28T01:00:55.548Z,5.00
2018-07-28T01:03:23.227Z,5.03
2018-07-28T01:05:50.768Z,7.57
2018-07-28T01:08:18.490Z,7.83
2018-07-28T01:10:46.556Z,6.20
2018-07-28T01:13:15.400Z,6.00
2018-07-28T01:15:44.248Z,6.23
2018-07-28T01:18:12.222Z,5.13
2018-07-28T01:20:41.067Z,4.70
2018-07-28T01:23:09.099Z,5.50
2018-07-28T01:25:37.188Z,5.70
2018-07-28T01:28:05.520Z,5.47
2018-07-28T01:30:33.387Z,4.97
2018-07-28T01:33:01.129Z,4.20
2018-07-28T01:35:29.046Z,5.07
2018-07-28T01:37:56.632Z,7.60
2018-07-28T01:40:24.067Z,6.57
2018-07-28T01:42:51.687Z,6.80
2018-07-28T01:45:19.972Z,6.73
2018-07-28T01:47:48.359Z,7.20
2018-07-28T01:50:16.815Z,6.97
2018-07-28T01:52:45.296Z,7.20
2018-07-28T01:55:13.175Z,6.60
2018-07-28T01:57:41.348Z,6.43
2018-07-28T02:00:09.620Z,6.73
2018-07-28T02:02:37.556Z,6.33
2018-07-28T02:05:06.824Z,7.20
2018-07-28T02:07:34.482Z,6.57
2018-07-28T02:10:02.561Z,7.03
2018-07-28T02:12:30.450Z,7.60
2018-07-28T02:14:58.378Z,8.03
2018-07-28T02:17:26.010Z,7.90
2018-07-28T02:19:53.815Z,6.97
2018-07-28T02:22:21.729Z,8.20
2018-07-28T02:24:49.538Z,8.10
2018-07-28T02:27:17.070Z,7.67
2018-07-28T02:29:45.220Z,7.83
2018-07-28T02:32:12.735Z,8.23
2018-07-28T02:34:40.251Z,7.60
2018-07-28T02:37:07.985Z,6.90
2018-07-28T02:39:35.514Z,7.23
2018-07-28T02:42:03.179Z,7.53
2018-07-28T02:44:31.416Z,8.00
2018-07-28T02:46:59.425Z,7.67
2018-07-28T02:49:27.023Z,7.73
2018-07-28T02:51:56.175Z,7.80
2018-07-28T02:54:23.999Z,7.93
2018-07-28T02:56:52.479Z,7.07
2018-07-28T02:59:19.991Z,7.47
2018-07-28T03:01:48.126Z,7.87
2018-07-28T03:04:15.722Z,7.80
2018-07-28T03:06:43.239Z,8.73
2018-07-28T03:09:12.123Z,7.80
2018-07-28T03:11:41.267Z,7.97
2018-07-28T03:14:09.281Z,7.60
2018-07-28T03:16:37.111Z,7.73
2018-07-28T03:19:05.459Z,7.77
2018-07-28T03:21:33.456Z,7.57
2018-07-28T03:24:00.999Z,8.30
2018-07-28T03:26:29.156Z,7.07
2018-07-28T03:28:56.679Z,6.83
2018-07-28T03:31:25.667Z,8.00
2018-07-28T03:33:54.014Z,8.20
2018-07-28T03:36:21.503Z,7.43
2018-07-28T03:38:49.732Z,7.57
2018-07-28T03:41:17.265Z,7.20
2018-07-28T03:43:45.147Z,7.97
2018-07-28T03:46:13.378Z,7.80
2018-07-28T03:48:40.890Z,7.73
2018-07-28T03:51:08.724Z,7.90
2018-07-28T03:53:36.974Z,7.67
2018-07-28T03:56:04.474Z,7.47
2018-07-28T03:58:32.143Z,7.80
2018-07-28T04:01:00.051Z,7.50
2018-07-28T04:03:27.591Z,7.40
2018-07-28T04:05:55.118Z,6.47
2018-07-28T04:08:23.024Z,6.90
2018-07-28T04:10:50.842Z,5.67
2018-07-28T04:13:18.843Z,6.60
2018-07-28T04:15:46.699Z,6.40
2018-07-28T04:18:14.750Z,6.67
2018-07-28T04:20:42.251Z,5.53
2018-07-28T04:23:10.106Z,6.93
2018-07-28T04:25:38.186Z,7.53
2018-07-28T04:28:05.729Z,7.43
2018-07-28T04:30:33.776Z,8.17
2018-07-28T04:33:01.215Z,7.67
2018-07-28T04:35:28.738Z,7.47
2018-07-28T04:37:56.385Z,8.13
2018-07-28T04:40:24.508Z,8.20
2018-07-28T04:42:52.043Z,7.43
2018-07-28T04:45:20.155Z,7.30
2018-07-28T04:47:48.136Z,7.73
2018-07-28T04:50:16.244Z,7.07
2018-07-28T04:52:44.231Z,7.20
2018-07-28T04:55:11.686Z,7.60
2018-07-28T04:57:39.192Z,7.53
2018-07-28T05:00:07.127Z,7.40
2018-07-28T05:02:35.327Z,7.70
2018-07-28T05:05:02.904Z,7.60
2018-07-28T05:07:31.034Z,6.50
2018-07-28T05:09:58.974Z,7.50
2018-07-28T05:12:27.189Z,7.47
2018-07-28T05:14:55.206Z,6.97
2018-07-28T05:17:22.727Z,7.20
2018-07-28T05:19:50.359Z,8.13
2018-07-28T05:22:19.944Z,6.97
2018-07-28T05:24:47.806Z,7.30
2018-07-28T05:27:15.354Z,7.33
2018-07-28T05:29:44.193Z,6.90
2018-07-28T05:32:11.744Z,7.30
2018-07-28T05:34:39.270Z,7.10
2018-07-28T05:37:06.865Z,7.03
2018-07-28T05:39:34.828Z,7.23
2018-07-28T05:42:02.459Z,7.30
2018-07-28T05:44:30.850Z,7.53
2018-07-28T05:46:58.322Z,7.57
2018-07-28T05:49:26.115Z,7.00
2018-07-28T05:51:53.699Z,6.20
2018-07-28T05:54:21.503Z,6.97
2018-07-28T05:56:49.529Z,7.53
2018-07-28T05:59:17.033Z,7.00
2018-07-28T06:01:45.431Z,6.73
2018-07-28T06:04:13.482Z,6.90
2018-07-28T06:06:40.994Z,5.87
2018-07-28T06:09:09.639Z,6.90
2018-07-28T06:11:38.170Z,6.80
2018-07-28T06:14:06.844Z,7.20
2018-07-28T06:16:34.774Z,6.20
2018-07-28T06:19:02.284Z,6.37
2018-07-28T06:21:30.154Z,5.87
2018-07-28T06:23:57.663Z,6.30
2018-07-28T06:26:26.977Z,6.00
2018-07-28T06:28:54.500Z,6.30
2018-07-28T06:31:22.843Z,6.80
2018-07-28T06:33:50.423Z,6.50
2018-07-28T06:36:18.831Z,6.60
2018-07-28T06:38:46.787Z,6.60
2018-07-28T06:41:15.487Z,6.57
2018-07-28T06:43:43.687Z,6.47
2018-07-28T06:46:11.943Z,6.10
2018-07-28T06:48:40.599Z,7.00
2018-07-28T06:51:08.490Z,6.43
2018-07-28T06:53:38.186Z,6.33
2018-07-28T06:56:06.018Z,6.60
2018-07-28T06:58:33.942Z,6.20
2018-07-28T07:01:03.428Z,5.77
2018-07-28T07:03:31.857Z,5.93
2018-07-28T07:05:59.512Z,5.30
2018-07-28T07:08:27.434Z,5.70
2018-07-28T07:10:56.022Z,6.20
2018-07-28T07:13:24.401Z,6.40
2018-07-28T07:15:52.244Z,6.10
2018-07-28T07:18:20.892Z,5.73
2018-07-28T07:20:48.724Z,5.40
2018-07-28T07:23:17.142Z,5.70
2018-07-28T07:25:45.513Z,5.23
2018-07-28T07:28:14.183Z,6.03
2018-07-28T07:30:42.369Z,5.17
2018-07-28T07:33:10.947Z,5.30
2018-07-28T07:35:38.713Z,6.20
2018-07-28T07:38:07.191Z,5.63
2018-07-28T07:40:35.504Z,6.00
2018-07-28T07:43:04.281Z,5.70
2018-07-28T07:45:33.266Z,5.87
2018-07-28T07:48:01.645Z,5.90
2018-07-28T07:50:29.386Z,5.33
2018-07-28T07:52:57.331Z,5.30
2018-07-28T07:55:25.519Z,5.30
2018-07-28T07:57:54.051Z,6.03
2018-07-28T08:00:22.796Z,4.77
2018-07-28T08:02:50.588Z,5.20
2018-07-28T08:05:18.391Z,5.53
2018-07-28T08:07:46.812Z,4.30
2018-07-28T08:10:14.812Z,5.30
2018-07-28T08:12:43.571Z,5.40
2018-07-28T08:15:12.340Z,5.30
2018-07-28T08:17:40.108Z,5.10
2018-07-28T08:20:07.977Z,5.63
2018-07-28T08:22:36.252Z,5.70
2018-07-28T08:25:05.307Z,5.00
2018-07-28T08:27:34.252Z,5.10
2018-07-28T08:30:03.151Z,5.53
2018-07-28T08:32:32.338Z,5.20
2018-07-28T08:35:00.194Z,5.40
2018-07-28T08:37:28.440Z,5.97
2018-07-28T08:39:58.018Z,5.50
2018-07-28T08:42:26.348Z,5.10
2018-07-28T08:44:55.250Z,5.10
2018-07-28T08:47:23.072Z,4.30
2018-07-28T08:49:51.488Z,4.50
2018-07-28T08:52:19.221Z,4.70
2018-07-28T08:54:47.011Z,4.70
2018-07-28T08:57:16.676Z,4.83
2018-07-28T08:59:44.971Z,4.70
2018-07-28T09:02:13.049Z,4.60
2018-07-28T09:04:41.511Z,5.63
2018-07-28T09:07:10.404Z,5.07
2018-07-28T09:09:38.633Z,5.20
2018-07-28T09:12:07.711Z,5.00
2018-07-28T09:14:36.111Z,4.97
2018-07-28T09:17:04.237Z,5.10
2018-07-28T09:19:31.993Z,4.70
2018-07-28T09:22:00.342Z,4.77
2018-07-28T09:24:29.052Z,4.10
2018-07-28T09:26:56.554Z,3.80
2018-07-28T09:29:24.386Z,4.43
2018-07-28T09:31:52.203Z,5.07
2018-07-28T09:34:19.743Z,4.13
2018-07-28T09:36:47.277Z,4.67
2018-07-28T09:39:15.410Z,4.13
2018-07-28T09:41:42.918Z,4.80
2018-07-28T09:44:10.895Z,5.07
2018-07-28T09:46:38.426Z,4.80
2018-07-28T09:49:06.652Z,4.40
2018-07-28T09:51:35.007Z,4.33
2018-07-28T09:54:02.540Z,5.13
2018-07-28T09:56:30.401Z,4.47
2018-07-28T09:58:57.995Z,4.40
2018-07-28T10:01:25.495Z,4.80
2018-07-28T10:03:53.749Z,5.90
2018-07-28T10:06:21.399Z,5.80
2018-07-28T10:08:49.946Z,5.23
2018-07-28T10:11:17.390Z,5.60
2018-07-28T10:13:45.281Z,5.30
2018-07-28T10:16:12.830Z,5.30
2018-07-28T10:18:40.343Z,5.47
2018-07-28T10:21:08.257Z,5.27
2018-07-28T10:23:36.191Z,6.03
2018-07-28T10:26:04.360Z,5.50
2018-07-28T10:28:31.903Z,4.30
2018-07-28T10:31:00.092Z,5.50
2018-07-28T10:33:28.296Z,5.37
2018-07-28T10:35:56.434Z,4.83
2018-07-28T10:38:24.026Z,5.33
2018-07-28T10:40:52.423Z,5.43
2018-07-28T10:43:19.947Z,5.50
2018-07-28T10:45:48.123Z,5.80
2018-07-28T10:48:15.623Z,6.10
2018-07-28T10:50:43.121Z,5.53
2018-07-28T10:53:11.790Z,5.77
2018-07-28T10:55:39.282Z,5.33
2018-07-28T10:58:06.794Z,5.70
2018-07-28T11:00:34.986Z,6.20
2018-07-28T11:03:02.495Z,5.70
2018-07-28T11:05:30.775Z,5.50
2018-07-28T11:07:58.263Z,4.80
2018-07-28T11:10:26.562Z,6.57
2018-07-28T11:12:54.504Z,5.40
2018-07-28T11:15:22.507Z,5.63
2018-07-28T11:17:50.383Z,5.80
2018-07-28T11:20:17.908Z,5.97
2018-07-28T11:22:45.807Z,6.03
2018-07-28T11:25:13.631Z,5.40
2018-07-28T11:27:41.143Z,5.70
2018-07-28T11:30:09.493Z,5.20
2018-07-28T11:32:48.576Z,5.93
2018-07-28T11:35:28.504Z,5.87
2018-07-28T11:38:08.527Z,5.83
2018-07-28T11:40:43.503Z,5.80
2018-07-28T11:43:22.730Z,6.20
2018-07-28T11:45:50.841Z,5.20
2018-07-28T11:48:18.836Z,5.60
2018-07-28T11:50:46.729Z,5.50
2018-07-28T11:53:14.227Z,5.70
2018-07-28T11:55:41.999Z,5.03
2018-07-28T11:58:09.547Z,5.10
2018-07-28T12:00:37.547Z,5.87
2018-07-28T12:03:05.961Z,6.10
2018-07-28T12:05:33.574Z,6.63
2018-07-28T12:08:01.031Z,7.20
2018-07-28T12:10:29.070Z,6.10
2018-07-28T12:12:56.967Z,6.50
2018-07-28T12:15:24.463Z,6.63
2018-07-28T12:17:52.023Z,6.27
2018-07-28T12:20:19.557Z,5.77
2018-07-28T12:22:47.702Z,6.27
2018-07-28T12:25:15.671Z,6.10
2018-07-28T12:27:43.173Z,6.40
2018-07-28T12:30:11.810Z,5.87
2018-07-28T12:32:39.954Z,5.30
2018-07-28T12:35:07.927Z,6.10
2018-07-28T12:37:35.465Z,6.20
2018-07-28T12:40:03.383Z,5.67
2018-07-28T12:42:31.383Z,5.80
2018-07-28T12:44:59.239Z,5.40
2018-07-28T12:47:27.303Z,4.80
2018-07-28T12:49:54.799Z,5.40
2018-07-28T12:52:22.728Z,5.13
2018-07-28T12:54:50.235Z,5.87
2018-07-28T12:57:18.132Z,6.23
2018-07-28T12:59:45.722Z,5.30
2018-07-28T13:02:13.221Z,5.60
2018-07-28T13:04:41.018Z,5.70
2018-07-28T13:07:08.970Z,5.10
2018-07-28T13:09:36.527Z,5.00
2018-07-28T13:12:05.194Z,5.90
2018-07-28T13:14:33.466Z,5.00
2018-07-28T13:17:01.038Z,5.77
2018-07-28T13:19:29.113Z,5.40
2018-07-28T13:21:57.695Z,5.30
2018-07-28T13:24:27.620Z,5.00
2018-07-28T13:26:55.298Z,5.43
2018-07-28T13:29:23.889Z,5.50
2018-07-28T13:31:52.444Z,5.27
2018-07-28T13:34:21.120Z,5.57
2018-07-28T13:36:49.165Z,5.10
2018-07-28T13:39:17.839Z,4.47
2018-07-28T13:41:45.609Z,4.23
2018-07-28T13:44:13.945Z,4.40
2018-07-28T13:46:42.121Z,3.60
2018-07-28T13:49:10.674Z,4.20
2018-07-28T13:51:39.289Z,4.00
2018-07-28T13:54:07.953Z,4.10
2018-07-28T13:56:36.388Z,4.30
2018-07-28T13:59:04.281Z,4.23
2018-07-28T14:01:32.076Z,4.67
2018-07-28T14:03:59.796Z,4.90
2018-07-28T14:06:28.613Z,4.30
2018-07-28T14:08:56.287Z,5.20
2018-07-28T14:11:24.204Z,4.63
2018-07-28T14:13:52.687Z,5.13
2018-07-28T14:16:21.181Z,5.20
2018-07-28T14:18:49.399Z,5.33
2018-07-28T14:21:17.385Z,4.43
2018-07-28T14:23:45.745Z,4.33
2018-07-28T14:26:14.327Z,4.40
2018-07-28T14:28:42.273Z,4.43
2018-07-28T14:31:10.757Z,4.50
2018-07-28T14:33:38.529Z,4.57
2018-07-28T14:36:06.445Z,4.40
2018-07-28T14:38:34.373Z,4.20
2018-07-28T14:41:02.120Z,4.20
2018-07-28T14:43:30.444Z,4.50
2018-07-28T14:45:58.195Z,3.60
2018-07-28T14:48:26.637Z,3.63
2018-07-28T14:50:54.519Z,4.40
2018-07-28T14:53:22.948Z,3.80
2018-07-28T14:55:51.810Z,3.47
2018-07-28T14:58:19.701Z,3.43
2018-07-28T15:00:47.627Z,3.90
2018-07-28T15:03:16.461Z,3.67
2018-07-28T15:05:43.979Z,3.40
2018-07-28T15:08:12.056Z,3.70
2018-07-28T15:10:40.121Z,3.70
2018-07-28T15:13:08.076Z,3.40
2018-07-28T15:15:35.963Z,3.67
2018-07-28T15:18:04.883Z,3.90
2018-07-28T15:20:32.399Z,4.10
2018-07-28T15:23:00.250Z,3.37
2018-07-28T15:25:28.127Z,4.27
2018-07-28T15:27:55.641Z,3.90
2018-07-28T15:30:23.543Z,4.00
2018-07-28T15:32:51.498Z,4.13
2018-07-28T15:35:19.010Z,4.50
2018-07-28T15:37:46.528Z,4.37
2018-07-28T15:40:15.007Z,4.13
2018-07-28T15:42:42.986Z,4.20
2018-07-28T15:45:10.952Z,4.50
2018-07-28T15:47:38.944Z,4.60
2018-07-28T15:50:07.174Z,4.10
2018-07-28T15:52:34.688Z,4.23
2018-07-28T15:55:02.239Z,4.20
2018-07-28T15:57:29.775Z,4.20
2018-07-28T15:59:57.818Z,3.97
2018-07-28T16:02:25.338Z,4.20
2018-07-28T16:04:52.858Z,4.40
2018-07-28T16:07:20.414Z,3.63
2018-07-28T16:09:48.397Z,4.73
2018-07-28T16:12:16.255Z,4.37
2018-07-28T16:14:44.495Z,3.90
2018-07-28T16:17:12.202Z,5.20
2018-07-28T16:19:39.773Z,4.53
2018-07-28T16:22:08.430Z,4.57
2018-07-28T16:24:36.472Z,4.90
2018-07-28T16:27:04.088Z,3.80
2018-07-28T16:29:31.603Z,4.47
2018-07-28T16:32:00.001Z,3.93
2018-07-28T16:34:28.540Z,3.77
2018-07-28T16:36:56.608Z,4.83
2018-07-28T16:39:25.422Z,4.67
2018-07-28T16:41:53.170Z,4.10
2018-07-28T16:44:21.068Z,4.10
2018-07-28T16:46:48.578Z,3.67
2018-07-28T16:49:16.773Z,3.70
2018-07-28T16:51:44.313Z,3.40
2018-07-28T16:54:11.820Z,4.10
2018-07-28T16:56:39.406Z,4.50
2018-07-28T16:59:06.910Z,4.80
2018-07-28T17:01:34.512Z,4.23
2018-07-28T17:04:02.021Z,4.30
2018-07-28T17:06:30.199Z,4.67
2018-07-28T17:08:57.727Z,3.90
2018-07-28T17:11:25.879Z,4.40
2018-07-28T17:13:54.169Z,5.10
2018-07-28T17:16:21.671Z,6.07
2018-07-28T17:18:49.178Z,5.63
2018-07-28T17:21:17.111Z,5.00
2018-07-28T17:23:45.703Z,5.20
2018-07-28T17:26:13.824Z,5.43
2018-07-28T17:28:41.711Z,4.60
2018-07-28T17:31:09.785Z,4.80
2018-07-28T17:33:37.358Z,4.53
2018-07-28T17:36:05.673Z,5.03
2018-07-28T17:38:33.198Z,3.97
2018-07-28T17:41:01.130Z,4.67
2018-07-28T17:43:29.201Z,5.10
2018-07-28T17:45:56.718Z,5.90
2018-07-28T17:48:24.268Z,5.60
2018-07-28T17:50:52.384Z,5.30
2018-07-28T17:53:19.958Z,4.87
2018-07-28T17:55:47.458Z,5.70
2018-07-28T17:58:15.084Z,5.50
2018-07-28T18:00:42.571Z,5.80
2018-07-28T18:03:10.164Z,5.80
2018-07-28T18:05:37.720Z,6.47
2018-07-28T18:08:05.594Z,4.00
2018-07-28T18:10:33.146Z,4.70
2018-07-28T18:13:01.345Z,6.63
2018-07-28T18:15:28.871Z,5.40
2018-07-28T18:17:56.727Z,5.50
2018-07-28T18:20:24.268Z,5.00
2018-07-28T18:22:52.541Z,5.53
2018-07-28T18:25:20.951Z,4.60
2018-07-28T18:27:48.503Z,5.27
2018-07-28T18:30:16.067Z,4.70
2018-07-28T18:32:44.279Z,4.53
2018-07-28T18:35:12.111Z,5.53
2018-07-28T18:37:39.631Z,6.30
2018-07-28T18:40:07.231Z,7.00
2018-07-28T18:44:04.722Z,6.63
2018-07-28T18:46:32.903Z,5.60
2018-07-28T18:49:00.735Z,5.40
2018-07-28T18:51:28.311Z,4.63
2018-07-28T18:53:57.322Z,9.23
2018-07-28T18:56:24.889Z,8.43
2018-07-28T18:58:52.404Z,6.10
2018-07-28T19:01:20.455Z,5.90
2018-07-28T19:03:47.977Z,6.87
2018-07-28T19:06:16.759Z,6.50
2018-07-28T19:08:47.914Z,7.70
2018-07-28T19:11:15.433Z,7.83
2018-07-28T19:13:50.322Z,7.30
2018-07-28T19:16:18.666Z,6.37
2018-07-28T19:18:52.479Z,6.77
2018-07-28T19:21:20.361Z,5.40
2018-07-28T19:23:54.562Z,4.80
2018-07-28T19:26:22.063Z,5.53
2018-07-28T19:28:55.252Z,5.40
2018-07-28T19:31:23.504Z,6.40
2018-07-28T19:33:51.018Z,6.87
2018-07-28T19:36:24.203Z,8.17
2018-07-28T19:38:52.295Z,7.30
2018-07-28T19:41:20.338Z,7.53
2018-07-28T19:43:48.216Z,6.73
2018-07-28T19:46:15.737Z,8.43
2018-07-28T19:48:43.632Z,9.13
2018-07-28T19:51:11.157Z,7.90
2018-07-28T19:53:38.663Z,9.30
2018-07-28T19:56:06.241Z,7.40
2018-07-28T19:58:33.759Z,7.03
2018-07-28T20:01:01.475Z,6.70
2018-07-28T20:03:29.835Z,8.30
2018-07-28T20:05:57.287Z,7.43
2018-07-28T20:08:24.787Z,7.00
2018-07-28T20:10:52.970Z,5.70
2018-07-28T20:13:21.019Z,5.27
2018-07-28T20:15:48.552Z,6.63
2018-07-28T20:18:16.106Z,6.83
2018-07-28T20:20:43.650Z,6.17
2018-07-28T20:23:12.169Z,7.07
2018-07-28T20:25:40.151Z,7.03
2018-07-28T20:28:07.999Z,5.93
2018-07-28T20:30:36.621Z,5.87
2018-07-28T20:33:04.079Z,7.70
2018-07-28T20:35:31.591Z,7.63
2018-07-28T20:37:59.129Z,7.73
2018-07-28T20:40:27.534Z,7.67
2018-07-28T20:42:55.785Z,9.07
2018-07-28T20:45:23.639Z,10.00
2018-07-28T20:47:51.135Z,7.93
2018-07-28T20:50:18.648Z,5.70
2018-07-28T20:52:46.167Z,6.07
2018-07-28T20:55:13.691Z,7.10
2018-07-28T20:57:41.261Z,6.40
2018-07-28T21:00:09.151Z,5.83
2018-07-28T21:02:36.687Z,6.40
2018-07-28T21:05:05.069Z,6.93
2018-07-28T21:07:32.682Z,8.33
2018-07-28T21:10:01.310Z,7.10
2018-07-28T21:12:29.220Z,7.67
2018-07-28T21:14:56.794Z,7.83
2018-07-28T21:17:24.258Z,8.67
2018-07-28T21:19:51.903Z,7.57
2018-07-28T21:22:20.368Z,8.33
2018-07-28T21:24:48.663Z,8.73
2018-07-28T21:27:16.615Z,6.60
2018-07-28T21:29:44.115Z,6.73
2018-07-28T21:32:12.203Z,8.60
2018-07-28T21:34:39.823Z,7.03
2018-07-28T21:37:07.329Z,6.80
2018-07-28T21:39:34.856Z,8.57
2018-07-28T21:42:03.032Z,10.30
2018-07-28T21:44:31.322Z,7.70
2018-07-28T21:46:58.850Z,8.80
2018-07-28T21:49:26.847Z,7.40
2018-07-28T21:51:54.979Z,7.70
2018-07-28T21:54:22.524Z,7.10
2018-07-28T21:56:50.039Z,8.07
2018-07-28T21:59:17.978Z,8.50
2018-07-28T22:01:45.482Z,7.30
2018-07-28T22:04:26.203Z,6.57
2018-07-28T22:06:53.743Z,9.03
2018-07-28T22:09:22.470Z,8.37
2018-07-28T22:11:50.482Z,10.83
2018-07-28T22:14:18.447Z,10.17
2018-07-28T22:16:45.956Z,8.40
2018-07-28T22:19:13.459Z,7.93
2018-07-28T22:21:41.890Z,8.87
2018-07-28T22:24:09.785Z,7.57
2018-07-28T22:26:37.284Z,10.07
2018-07-28T22:29:04.839Z,6.50
2018-07-28T22:31:33.287Z,9.90
2018-07-28T22:34:00.798Z,8.23
2018-07-28T22:36:28.295Z,6.70
2018-07-28T22:38:56.766Z,5.97
2018-07-28T22:41:25.254Z,5.50
2018-07-28T22:43:53.476Z,6.17
2018-07-28T22:46:21.247Z,5.53
2018-07-28T22:48:48.756Z,5.67
2018-07-28T22:51:16.330Z,6.27
2018-07-28T22:53:43.868Z,8.67
2018-07-28T22:56:11.681Z,8.43
2018-07-28T22:58:39.234Z,7.73
2018-07-28T23:01:06.945Z,6.53
2018-07-28T23:03:34.490Z,8.03
2018-07-28T23:06:02.698Z,6.90
2018-07-28T23:08:30.190Z,6.50
2018-07-28T23:10:58.346Z,5.60
2018-07-28T23:13:26.251Z,6.57
2018-07-28T23:15:53.751Z,6.70
2018-07-28T23:18:21.266Z,7.03
2018-07-28T23:20:48.806Z,8.37
2018-07-28T23:23:17.529Z,8.83
2018-07-28T23:25:45.500Z,9.27
2018-07-28T23:28:13.359Z,6.77
2018-07-28T23:30:41.442Z,7.00
2018-07-28T23:33:08.902Z,7.30
2018-07-28T23:35:36.404Z,6.37
2018-07-28T23:38:04.036Z,6.60
2018-07-28T23:40:32.130Z,8.37
2018-07-28T23:43:00.225Z,6.60
2018-07-28T23:45:28.114Z,7.77
2018-07-28T23:47:55.630Z,8.27
2018-07-28T23:50:23.121Z,8.80
2018-07-28T23:52:51.171Z,9.67
2018-07-28T23:55:18.623Z,9.33
2018-07-28T23:57:46.241Z,8.57
